Time;durP1;ratioP1;P1;durP2;ratioP2;P2;SDS_P1;SDS_P2;PMS_P1;PMS_P2;Temp;Humidity;BMP_temperature;BMP_pressure;BME280_temperature;BME280_humidity;BME280_pressure;Samples;Min_cycle;Max_cycle;Signal;HPM_P1;HPM_P2
2021/10/04 00:01:50;;;;;;;13.80;7.00;;;;;;;;;;4447562;32;20649;-51
2021/10/04 00:04:15;;;;;;;16.00;7.47;;;;;;;;;;4447839;32;20481;-52
2021/10/04 00:06:41;;;;;;;12.17;7.33;;;;;;;;;;4447816;32;20277;-50
2021/10/04 00:09:06;;;;;;;13.60;8.70;;;;;;;;;;4447805;32;20290;-50
2021/10/04 00:11:32;;;;;;;17.00;7.93;;;;;;;;;;4448153;32;20572;-50
2021/10/04 00:13:57;;;;;;;15.37;7.57;;;;;;;;;;4447933;32;20278;-50
2021/10/04 00:16:23;;;;;;;18.13;10.30;;;;;;;;;;4447338;32;20220;-50
2021/10/04 00:18:48;;;;;;;31.37;11.93;;;;;;;;;;4448159;32;20313;-50
2021/10/04 00:21:14;;;;;;;27.40;12.33;;;;;;;;;;4447366;32;20246;-50
2021/10/04 00:23:39;;;;;;;31.77;12.20;;;;;;;;;;4459720;32;20291;-51
2021/10/04 00:26:05;;;;;;;17.97;11.47;;;;;;;;;;4463249;32;20303;-50
2021/10/04 00:28:31;;;;;;;34.23;15.77;;;;;;;;;;4457961;32;20311;-51
2021/10/04 00:30:56;;;;;;;33.00;14.50;;;;;;;;;;4447924;32;20208;-50
2021/10/04 00:33:22;;;;;;;29.93;14.00;;;;;;;;;;4440097;32;20288;-50
2021/10/04 00:35:47;;;;;;;39.30;16.10;;;;;;;;;;4432068;32;20254;-50
2021/10/04 00:38:13;;;;;;;46.00;18.97;;;;;;;;;;4440495;32;20293;-52
2021/10/04 00:40:39;;;;;;;35.80;19.57;;;;;;;;;;4447852;32;20619;-50
2021/10/04 00:43:05;;;;;;;35.13;17.20;;;;;;;;;;4447301;32;20306;-51
2021/10/04 00:45:31;;;;;;;26.17;11.93;;;;;;;;;;4447525;32;20228;-50
2021/10/04 00:47:57;;;;;;;17.93;9.87;;;;;;;;;;4447393;32;20304;-50
2021/10/04 00:50:23;;;;;;;20.27;11.90;;;;;;;;;;4447290;32;20704;-50
2021/10/04 00:52:49;;;;;;;18.03;10.23;;;;;;;;;;4447320;32;20321;-52
2021/10/04 00:55:15;;;;;;;14.20;9.10;;;;;;;;;;4447395;32;20320;-50
2021/10/04 00:57:41;;;;;;;18.23;10.17;;;;;;;;;;4445963;32;20712;-50
2021/10/04 01:00:17;;;;;;;22.73;11.03;;;;;;;;;;4447298;32;20278;-50
2021/10/04 01:02:42;;;;;;;17.03;10.03;;;;;;;;;;4446864;32;20738;-50
2021/10/04 01:05:09;;;;;;;22.30;9.67;;;;;;;;;;4447315;32;20310;-50
2021/10/04 01:07:35;;;;;;;15.40;10.03;;;;;;;;;;4445993;32;20247;-50
2021/10/04 01:10:02;;;;;;;16.17;10.00;;;;;;;;;;4447564;32;20224;-50
2021/10/04 01:12:28;;;;;;;18.50;9.27;;;;;;;;;;4445897;32;20285;-51
2021/10/04 01:14:53;;;;;;;18.83;10.77;;;;;;;;;;4447282;32;20212;-50
2021/10/04 01:17:19;;;;;;;22.93;10.90;;;;;;;;;;4446921;32;20240;-50
2021/10/04 01:19:44;;;;;;;21.67;11.00;;;;;;;;;;4447076;32;20220;-50
2021/10/04 01:22:10;;;;;;;19.60;10.77;;;;;;;;;;4447262;32;20196;-50
2021/10/04 01:24:36;;;;;;;19.27;10.60;;;;;;;;;;4447365;32;20360;-51
2021/10/04 01:27:03;;;;;;;17.97;9.53;;;;;;;;;;4448516;32;20284;-50
2021/10/04 01:29:29;;;;;;;15.27;8.80;;;;;;;;;;4450200;32;20317;-50
2021/10/04 01:31:55;;;;;;;13.37;7.57;;;;;;;;;;4449022;32;20220;-50
2021/10/04 01:34:20;;;;;;;11.67;7.43;;;;;;;;;;4436501;32;20221;-50
2021/10/04 01:36:46;;;;;;;15.97;8.67;;;;;;;;;;4434488;32;20279;-50
2021/10/04 01:39:11;;;;;;;46.13;21.73;;;;;;;;;;4449179;32;20354;-50
2021/10/04 01:41:37;;;;;;;63.03;32.80;;;;;;;;;;4450302;32;20280;-50
2021/10/04 01:44:03;;;;;;;57.80;32.87;;;;;;;;;;4450127;32;20569;-50
2021/10/04 01:46:28;;;;;;;42.60;18.73;;;;;;;;;;4449867;32;20262;-50
2021/10/04 01:48:53;;;;;;;24.90;13.83;;;;;;;;;;4450162;32;20613;-50
2021/10/04 01:51:19;;;;;;;18.73;10.67;;;;;;;;;;4449609;32;20755;-50
2021/10/04 01:53:44;;;;;;;17.97;10.03;;;;;;;;;;4450273;32;20275;-50
2021/10/04 01:56:10;;;;;;;9.63;7.43;;;;;;;;;;4449651;32;20228;-50
2021/10/04 01:58:35;;;;;;;14.93;8.40;;;;;;;;;;4450238;32;20193;-50
2021/10/04 02:01:02;;;;;;;18.30;8.40;;;;;;;;;;4449391;32;20221;-50
2021/10/04 02:03:28;;;;;;;10.87;7.00;;;;;;;;;;4449784;32;20656;-51
2021/10/04 02:05:55;;;;;;;12.33;7.67;;;;;;;;;;4449575;32;20240;-50
2021/10/04 02:08:20;;;;;;;12.80;8.40;;;;;;;;;;4449723;32;20230;-51
2021/10/04 02:10:46;;;;;;;14.03;8.67;;;;;;;;;;4449562;32;20615;-51
2021/10/04 02:13:12;;;;;;;17.63;7.47;;;;;;;;;;4449228;32;20283;-51
2021/10/04 02:15:39;;;;;;;12.03;7.83;;;;;;;;;;4449358;32;20220;-50
2021/10/04 02:18:06;;;;;;;11.10;7.20;;;;;;;;;;4449451;32;20240;-50
2021/10/04 02:20:35;;;;;;;14.07;7.83;;;;;;;;;;4449513;32;20220;-50
2021/10/04 02:23:05;;;;;;;10.67;7.00;;;;;;;;;;4449596;32;20204;-50
2021/10/04 02:25:34;;;;;;;13.67;7.77;;;;;;;;;;4449688;32;20322;-50
2021/10/04 02:28:00;;;;;;;17.87;7.73;;;;;;;;;;4447962;32;20610;-50
2021/10/04 02:30:25;;;;;;;14.00;6.37;;;;;;;;;;4449252;32;20360;-50
2021/10/04 02:32:52;;;;;;;9.03;5.57;;;;;;;;;;4445541;32;20279;-52
2021/10/04 02:35:19;;;;;;;13.63;6.37;;;;;;;;;;4433586;32;20252;-50
2021/10/04 02:37:45;;;;;;;16.13;6.97;;;;;;;;;;4438925;32;20209;-50
2021/10/04 02:40:11;;;;;;;15.63;7.37;;;;;;;;;;4447928;32;20411;-50
2021/10/04 02:42:37;;;;;;;12.63;7.70;;;;;;;;;;4449012;32;20333;-50
2021/10/04 02:45:04;;;;;;;12.67;7.77;;;;;;;;;;4449106;32;20216;-50
2021/10/04 02:47:29;;;;;;;10.97;6.70;;;;;;;;;;4449260;32;20299;-50
2021/10/04 02:49:55;;;;;;;12.47;7.63;;;;;;;;;;4449083;32;20326;-50
2021/10/04 02:52:21;;;;;;;11.07;7.80;;;;;;;;;;4448958;32;20216;-50
2021/10/04 02:54:47;;;;;;;19.63;9.20;;;;;;;;;;4449071;32;20308;-50
2021/10/04 02:57:12;;;;;;;40.23;17.67;;;;;;;;;;4449019;32;20204;-51
2021/10/04 02:59:39;;;;;;;35.60;14.83;;;;;;;;;;4447756;32;20724;-50
2021/10/04 03:02:04;;;;;;;33.73;16.17;;;;;;;;;;4448525;32;20611;-50
2021/10/04 03:04:30;;;;;;;30.00;11.63;;;;;;;;;;4449042;32;20323;-50
2021/10/04 03:06:55;;;;;;;23.13;10.60;;;;;;;;;;4448869;32;20595;-50
2021/10/04 03:09:21;;;;;;;18.23;9.67;;;;;;;;;;4448604;32;20320;-49
2021/10/04 03:11:46;;;;;;;22.83;9.83;;;;;;;;;;4448570;32;20760;-50
2021/10/04 03:14:12;;;;;;;28.17;10.17;;;;;;;;;;4447457;32;20299;-49
2021/10/04 03:16:37;;;;;;;21.27;10.20;;;;;;;;;;4448936;32;20646;-49
2021/10/04 03:19:03;;;;;;;19.43;9.57;;;;;;;;;;4448302;32;20275;-49
2021/10/04 03:21:28;;;;;;;15.10;9.10;;;;;;;;;;4448815;32;20335;-50
2021/10/04 03:23:54;;;;;;;19.77;9.63;;;;;;;;;;4448567;32;20301;-49
2021/10/04 03:26:19;;;;;;;28.27;9.30;;;;;;;;;;4448051;32;20304;-49
2021/10/04 03:28:45;;;;;;;63.07;37.33;;;;;;;;;;4448489;32;20296;-51
2021/10/04 03:31:11;;;;;;;70.50;45.37;;;;;;;;;;4448178;32;20342;-50
2021/10/04 03:33:36;;;;;;;66.60;44.30;;;;;;;;;;4439755;32;20356;-51
2021/10/04 03:36:03;;;;;;;56.50;35.33;;;;;;;;;;4432878;32;20241;-50
2021/10/04 03:38:29;;;;;;;57.60;33.43;;;;;;;;;;4443187;32;20268;-50
2021/10/04 03:40:54;;;;;;;50.97;31.03;;;;;;;;;;4448448;32;20265;-50
2021/10/04 03:43:20;;;;;;;32.10;20.40;;;;;;;;;;4448277;32;20279;-50
2021/10/04 03:45:45;;;;;;;19.23;11.13;;;;;;;;;;4448255;32;20783;-51
2021/10/04 03:48:11;;;;;;;15.80;7.90;;;;;;;;;;4448265;32;20346;-50
2021/10/04 03:50:37;;;;;;;14.67;8.97;;;;;;;;;;4447548;32;20250;-50
2021/10/04 03:53:02;;;;;;;14.33;8.87;;;;;;;;;;4448227;32;20648;-50
2021/10/04 03:55:28;;;;;;;11.30;7.07;;;;;;;;;;4447951;32;20267;-50
2021/10/04 03:57:53;;;;;;;14.13;8.00;;;;;;;;;;4448395;32;20325;-50
2021/10/04 04:00:22;;;;;;;15.60;9.00;;;;;;;;;;4448067;32;20415;-51
2021/10/04 04:02:47;;;;;;;19.30;11.83;;;;;;;;;;4447759;32;20303;-50
2021/10/04 04:05:14;;;;;;;20.90;11.00;;;;;;;;;;4447695;32;20246;-50
2021/10/04 04:07:39;;;;;;;17.30;9.93;;;;;;;;;;4447630;32;20355;-50
2021/10/04 04:10:08;;;;;;;21.40;11.33;;;;;;;;;;4448138;32;20221;-50
2021/10/04 04:12:34;;;;;;;19.80;11.53;;;;;;;;;;4447778;32;20220;-50
2021/10/04 04:14:59;;;;;;;21.40;12.87;;;;;;;;;;4446720;32;20391;-51
2021/10/04 04:17:24;;;;;;;33.73;15.53;;;;;;;;;;4447721;32;20413;-50
2021/10/04 04:19:50;;;;;;;23.30;13.83;;;;;;;;;;4447932;32;20335;-50
2021/10/04 04:22:15;;;;;;;29.57;14.77;;;;;;;;;;4447505;32;20251;-50
2021/10/04 04:24:41;;;;;;;24.17;14.83;;;;;;;;;;4447892;32;20224;-49
2021/10/04 04:27:07;;;;;;;38.47;18.43;;;;;;;;;;4447241;32;20317;-51
2021/10/04 04:29:35;;;;;;;36.20;16.30;;;;;;;;;;4446323;32;20612;-50
2021/10/04 04:32:02;;;;;;;30.80;15.87;;;;;;;;;;4446241;32;20343;-50
2021/10/04 04:34:27;;;;;;;31.80;17.20;;;;;;;;;;4432902;32;20225;-49
2021/10/04 04:36:53;;;;;;;38.57;16.53;;;;;;;;;;4431815;32;20288;-49
2021/10/04 04:39:18;;;;;;;37.60;16.27;;;;;;;;;;4447430;32;20247;-49
2021/10/04 04:41:44;;;;;;;34.87;14.37;;;;;;;;;;4447281;32;20236;-49
2021/10/04 04:44:09;;;;;;;24.77;15.97;;;;;;;;;;4447220;32;20337;-50
2021/10/04 04:46:34;;;;;;;31.47;15.70;;;;;;;;;;4447061;32;20256;-50
2021/10/04 04:49:00;;;;;;;36.90;15.77;;;;;;;;;;4446166;32;20414;-50
2021/10/04 04:51:25;;;;;;;24.50;14.67;;;;;;;;;;4447304;32;20263;-50
2021/10/04 04:53:51;;;;;;;29.97;14.93;;;;;;;;;;4447261;32;20279;-51
2021/10/04 04:56:16;;;;;;;31.10;14.60;;;;;;;;;;4446603;32;20261;-50
2021/10/04 04:58:42;;;;;;;25.63;13.57;;;;;;;;;;4447542;32;20596;-50
2021/10/04 05:01:08;;;;;;;23.37;12.60;;;;;;;;;;4447082;32;20239;-51
2021/10/04 05:03:33;;;;;;;21.00;12.33;;;;;;;;;;4451689;32;20330;-52
2021/10/04 05:05:58;;;;;;;23.67;12.60;;;;;;;;;;4451307;32;20685;-49
2021/10/04 05:08:24;;;;;;;26.27;12.27;;;;;;;;;;4450313;32;20279;-50
2021/10/04 05:10:49;;;;;;;22.33;11.07;;;;;;;;;;4450389;32;20255;-50
2021/10/04 05:13:15;;;;;;;27.40;11.70;;;;;;;;;;4450494;32;20323;-50
2021/10/04 05:15:41;;;;;;;19.27;12.03;;;;;;;;;;4450763;32;20248;-50
2021/10/04 05:18:06;;;;;;;23.00;12.20;;;;;;;;;;4450815;32;20400;-50
2021/10/04 05:20:32;;;;;;;19.50;11.27;;;;;;;;;;4449683;32;20236;-50
2021/10/04 05:22:58;;;;;;;18.83;10.03;;;;;;;;;;4451697;32;20672;-51
2021/10/04 05:25:23;;;;;;;28.77;12.27;;;;;;;;;;4452093;32;20687;-50
2021/10/04 05:27:49;;;;;;;23.50;10.20;;;;;;;;;;4452498;32;20408;-50
2021/10/04 05:30:15;;;;;;;19.10;9.67;;;;;;;;;;4452396;32;20335;-51
2021/10/04 05:32:40;;;;;;;24.73;11.30;;;;;;;;;;4449543;32;20204;-50
2021/10/04 05:35:07;;;;;;;21.87;10.27;;;;;;;;;;4439650;32;20278;-50
2021/10/04 05:37:32;;;;;;;14.40;9.57;;;;;;;;;;4451847;32;20232;-50
2021/10/04 05:39:58;;;;;;;20.87;11.03;;;;;;;;;;4451914;32;20546;-51
2021/10/04 05:42:24;;;;;;;19.07;11.07;;;;;;;;;;4451789;32;20347;-50
2021/10/04 05:44:50;;;;;;;18.50;11.53;;;;;;;;;;4452184;32;20295;-50
2021/10/04 05:47:15;;;;;;;23.37;12.83;;;;;;;;;;4451871;32;20635;-51
2021/10/04 05:49:41;;;;;;;17.60;10.63;;;;;;;;;;4452328;32;20298;-50
2021/10/04 05:52:07;;;;;;;19.23;10.70;;;;;;;;;;4451762;32;20232;-50
2021/10/04 05:54:32;;;;;;;21.00;11.20;;;;;;;;;;4452199;32;20247;-49
2021/10/04 05:56:58;;;;;;;25.53;10.17;;;;;;;;;;4451217;32;20208;-50
2021/10/04 05:59:23;;;;;;;20.23;10.60;;;;;;;;;;4451312;32;20248;-50
2021/10/04 06:01:49;;;;;;;17.17;11.03;;;;;;;;;;4451127;32;20291;-50
2021/10/04 06:04:14;;;;;;;14.80;10.63;;;;;;;;;;4451218;32;20398;-50
2021/10/04 06:06:40;;;;;;;23.97;10.20;;;;;;;;;;4450796;32;20225;-49
2021/10/04 06:09:05;;;;;;;23.53;10.57;;;;;;;;;;4451183;32;20799;-50
2021/10/04 06:11:31;;;;;;;15.93;10.70;;;;;;;;;;4451270;32;20201;-50
2021/10/04 06:13:57;;;;;;;42.97;12.77;;;;;;;;;;4448444;32;20309;-51
2021/10/04 06:16:22;;;;;;;20.73;12.50;;;;;;;;;;4448657;32;20274;-49
2021/10/04 06:18:48;;;;;;;28.30;12.13;;;;;;;;;;4449061;32;20689;-51
2021/10/04 06:21:13;;;;;;;27.70;11.53;;;;;;;;;;4447738;32;20221;-50
2021/10/04 06:23:39;;;;;;;28.17;13.20;;;;;;;;;;4449201;32;20343;-49
2021/10/04 06:26:04;;;;;;;21.50;11.80;;;;;;;;;;4449085;32;20228;-50
2021/10/04 06:28:30;;;;;;;19.73;11.77;;;;;;;;;;4449339;32;20263;-51
2021/10/04 06:30:55;;;;;;;23.83;13.00;;;;;;;;;;4449072;32;20664;-50
2021/10/04 06:33:20;;;;;;;19.00;10.93;;;;;;;;;;4449052;32;20714;-50
2021/10/04 06:35:47;;;;;;;16.70;10.73;;;;;;;;;;4448914;32;20220;-51
2021/10/04 06:38:13;;;;;;;19.17;12.57;;;;;;;;;;4448039;32;20204;-51
2021/10/04 06:40:39;;;;;;;24.93;15.30;;;;;;;;;;4448868;32;20482;-50
2021/10/04 06:43:05;;;;;;;29.33;15.83;;;;;;;;;;4448858;32;20370;-52
2021/10/04 06:45:30;;;;;;;26.83;15.87;;;;;;;;;;4448662;32;20217;-50
2021/10/04 06:47:56;;;;;;;33.90;15.67;;;;;;;;;;4449033;32;20275;-52
2021/10/04 06:50:21;;;;;;;35.47;18.70;;;;;;;;;;4448334;32;20578;-50
2021/10/04 06:52:47;;;;;;;34.33;19.20;;;;;;;;;;4448101;32;20280;-50
2021/10/04 06:55:12;;;;;;;30.53;17.67;;;;;;;;;;4447836;32;20224;-50
2021/10/04 06:57:39;;;;;;;27.87;15.67;;;;;;;;;;4447421;32;20254;-50
2021/10/04 07:00:08;;;;;;;29.90;13.77;;;;;;;;;;4447243;32;20277;-50
2021/10/04 07:02:34;;;;;;;22.10;11.87;;;;;;;;;;4447305;32;20595;-49
2021/10/04 07:05:00;;;;;;;23.13;11.37;;;;;;;;;;4447777;32;20262;-50
2021/10/04 07:07:26;;;;;;;16.53;11.27;;;;;;;;;;4447557;32;20517;-50
2021/10/04 07:09:52;;;;;;;18.33;10.33;;;;;;;;;;4447801;32;20648;-50
2021/10/04 07:12:17;;;;;;;13.43;8.13;;;;;;;;;;4447203;32;20261;-49
2021/10/04 07:14:43;;;;;;;20.37;8.17;;;;;;;;;;4448095;32;20270;-50
2021/10/04 07:17:08;;;;;;;13.60;8.43;;;;;;;;;;4447771;32;20278;-50
2021/10/04 07:19:34;;;;;;;10.30;7.73;;;;;;;;;;4448224;32;20531;-49
2021/10/04 07:22:00;;;;;;;11.80;8.07;;;;;;;;;;4448516;32;20225;-49
2021/10/04 07:24:26;;;;;;;22.40;9.13;;;;;;;;;;4447782;32;20247;-50
2021/10/04 07:26:52;;;;;;;14.40;8.13;;;;;;;;;;4447840;32;20200;-49
2021/10/04 07:29:18;;;;;;;13.83;8.53;;;;;;;;;;4447671;32;20224;-50
2021/10/04 07:31:43;;;;;;;10.30;7.27;;;;;;;;;;4447784;32;20497;-49
2021/10/04 07:34:09;;;;;;;14.30;7.80;;;;;;;;;;4435412;32;20727;-49
2021/10/04 07:36:35;;;;;;;11.50;7.80;;;;;;;;;;4431775;32;20295;-50
2021/10/04 07:39:03;;;;;;;10.27;7.40;;;;;;;;;;4445438;32;20397;-50
2021/10/04 07:41:28;;;;;;;11.67;7.63;;;;;;;;;;4447787;32;20782;-50
2021/10/04 07:43:54;;;;;;;14.10;8.03;;;;;;;;;;4446956;32;20280;-50
2021/10/04 07:46:19;;;;;;;10.90;7.93;;;;;;;;;;4447560;32;20698;-50
2021/10/04 07:48:45;;;;;;;18.00;8.37;;;;;;;;;;4447257;32;20418;-50
2021/10/04 07:51:14;;;;;;;13.00;8.90;;;;;;;;;;4446948;32;20665;-50
2021/10/04 07:53:40;;;;;;;8.97;7.03;;;;;;;;;;4447440;32;20226;-50
2021/10/04 07:56:05;;;;;;;11.70;7.90;;;;;;;;;;4447122;32;20268;-50
2021/10/04 07:58:31;;;;;;;15.30;7.60;;;;;;;;;;4447998;32;20213;-50
2021/10/04 08:00:57;;;;;;;26.17;8.93;;;;;;;;;;4447358;32;20213;-50
2021/10/04 08:03:22;;;;;;;15.60;8.30;;;;;;;;;;4446989;32;20294;-51
2021/10/04 08:05:48;;;;;;;16.13;8.93;;;;;;;;;;4447798;32;20220;-50
2021/10/04 08:08:13;;;;;;;18.57;7.43;;;;;;;;;;4447515;32;20291;-50
2021/10/04 08:10:39;;;;;;;11.00;7.70;;;;;;;;;;4447371;32;20295;-49
2021/10/04 08:13:05;;;;;;;14.23;8.87;;;;;;;;;;4447528;32;20343;-49
2021/10/04 08:15:31;;;;;;;16.73;8.13;;;;;;;;;;4447184;32;20256;-49
2021/10/04 08:17:57;;;;;;;10.93;7.83;;;;;;;;;;4446558;32;20255;-50
2021/10/04 08:20:22;;;;;;;25.57;11.07;;;;;;;;;;4447190;32;20225;-50
2021/10/04 08:22:48;;;;;;;15.63;8.50;;;;;;;;;;4447696;32;20264;-49
2021/10/04 08:25:13;;;;;;;10.40;7.30;;;;;;;;;;4446760;32;20324;-49
2021/10/04 08:27:40;;;;;;;11.97;8.27;;;;;;;;;;4447518;32;20295;-50
2021/10/04 08:30:06;;;;;;;11.30;6.47;;;;;;;;;;4446855;32;20312;-50
2021/10/04 08:32:31;;;;;;;19.17;8.60;;;;;;;;;;4444774;32;20264;-50
2021/10/04 08:34:57;;;;;;;9.60;6.23;;;;;;;;;;4431587;32;20270;-50
2021/10/04 08:37:22;;;;;;;10.03;6.70;;;;;;;;;;4432278;32;20283;-50
2021/10/04 08:39:48;;;;;;;10.43;5.97;;;;;;;;;;4446536;32;20228;-50
2021/10/04 08:42:14;;;;;;;6.00;5.23;;;;;;;;;;4445750;32;20236;-50
2021/10/04 08:44:41;;;;;;;7.37;5.90;;;;;;;;;;4446657;32;20371;-51
2021/10/04 08:47:06;;;;;;;15.77;6.60;;;;;;;;;;4446722;32;20318;-49
2021/10/04 08:49:33;;;;;;;12.30;6.67;;;;;;;;;;4446368;32;20344;-50
2021/10/04 08:52:00;;;;;;;7.63;5.93;;;;;;;;;;4446787;32;20330;-49
2021/10/04 08:54:27;;;;;;;8.13;6.70;;;;;;;;;;4446700;32;20680;-50
2021/10/04 08:56:54;;;;;;;13.18;6.93;;;;;;;;;;4444765;32;20373;-50
2021/10/04 08:59:19;;;;;;;7.60;5.83;;;;;;;;;;4447023;32;20221;-50
2021/10/04 09:01:45;;;;;;;10.90;5.90;;;;;;;;;;4446342;32;20227;-50
2021/10/04 09:04:10;;;;;;;11.00;6.00;;;;;;;;;;4445276;32;20717;-50
2021/10/04 09:06:35;;;;;;;15.87;7.30;;;;;;;;;;4446015;32;20261;-50
2021/10/04 09:09:09;;;;;;;14.23;6.67;;;;;;;;;;4445285;32;20233;-50
2021/10/04 09:11:36;;;;;;;10.83;5.37;;;;;;;;;;4446174;32;20647;-50
2021/10/04 09:14:09;;;;;;;12.13;5.73;;;;;;;;;;4446073;32;20303;-50
2021/10/04 09:17:06;;;;;;;10.57;5.80;;;;;;;;;;4446377;32;20276;-49
2021/10/04 09:19:35;;;;;;;12.70;5.10;;;;;;;;;;4404688;32;20699;-49
2021/10/04 09:22:10;;;;;;;9.07;5.37;;;;;;;;;;4446834;32;20279;-49
2021/10/04 09:24:42;;;;;;;15.35;4.75;;;;;;;;;;4445490;32;20714;-51
2021/10/04 09:27:27;;;;;;;8.40;5.13;;;;;;;;;;4445220;32;20772;-51
2021/10/04 09:29:54;;;;;;;6.55;5.05;;;;;;;;;;4446921;32;20216;-49
2021/10/04 09:32:25;;;;;;;17.60;7.82;;;;;;;;;;4444656;32;20316;-49
2021/10/04 09:35:09;;;;;;;12.95;5.28;;;;;;;;;;4431489;32;20317;-49
2021/10/04 09:37:34;;;;;;;7.22;5.32;;;;;;;;;;4435951;32;20229;-49
2021/10/04 09:40:02;;;;;;;8.33;5.00;;;;;;;;;;4446399;32;20577;-49
2021/10/04 09:42:36;;;;;;;7.10;4.10;;;;;;;;;;4446469;32;20205;-50
2021/10/04 09:45:03;;;;;;;7.20;5.10;;;;;;;;;;4440835;32;20207;-50
2021/10/04 09:47:32;;;;;;;8.68;5.53;;;;;;;;;;4461763;32;20204;-50
2021/10/04 09:50:06;;;;;;;7.93;4.80;;;;;;;;;;4464864;32;20635;-50
2021/10/04 09:52:56;;;;;;;8.47;4.80;;;;;;;;;;4465359;32;20530;-50
2021/10/04 09:55:27;;;;;;;10.83;4.80;;;;;;;;;;4465346;32;20706;-50
2021/10/04 09:58:04;;;;;;;6.43;4.77;;;;;;;;;;4465668;32;20223;-50
2021/10/04 10:00:33;;;;;;;9.90;4.72;;;;;;;;;;4465424;32;20298;-50
2021/10/04 10:03:00;;;;;;;7.18;4.80;;;;;;;;;;4450155;32;20365;-49
2021/10/04 10:05:28;;;;;;;6.53;4.68;;;;;;;;;;4449684;32;20313;-50
2021/10/04 10:07:54;;;;;;;6.07;5.10;;;;;;;;;;4449478;32;20275;-49
2021/10/04 10:10:21;;;;;;;7.53;4.75;;;;;;;;;;4449493;32;20583;-49
2021/10/04 10:12:47;;;;;;;7.40;5.25;;;;;;;;;;4449598;32;20358;-50
2021/10/04 10:15:21;;;;;;;8.50;4.37;;;;;;;;;;4449303;32;20274;-50
2021/10/04 10:17:49;;;;;;;6.62;4.65;;;;;;;;;;4448055;32;20390;-51
2021/10/04 10:20:18;;;;;;;9.77;5.03;;;;;;;;;;4449841;32;20276;-49
2021/10/04 10:22:52;;;;;;;12.25;5.28;;;;;;;;;;4449680;32;20225;-50
2021/10/04 10:25:38;;;;;;;6.85;5.12;;;;;;;;;;4449424;32;20298;-50
2021/10/04 10:28:07;;;;;;;7.87;4.75;;;;;;;;;;4449045;32;20862;-50
2021/10/04 10:30:33;;;;;;;9.55;5.15;;;;;;;;;;4448881;32;20272;-50
2021/10/04 10:33:00;;;;;;;6.05;4.37;;;;;;;;;;4443794;32;20560;-50
2021/10/04 10:35:46;;;;;;;8.85;5.00;;;;;;;;;;4433749;32;20272;-49
2021/10/04 10:38:11;;;;;;;10.55;5.40;;;;;;;;;;4441603;32;20245;-50
2021/10/04 10:40:37;;;;;;;8.93;5.68;;;;;;;;;;4449146;32;20209;-49
2021/10/04 10:43:09;;;;;;;9.07;5.90;;;;;;;;;;4449138;32;20344;-51
2021/10/04 10:45:50;;;;;;;10.13;5.35;;;;;;;;;;4449373;32;20282;-50
2021/10/04 10:48:17;;;;;;;8.75;5.87;;;;;;;;;;4448812;32;20217;-50
2021/10/04 10:50:49;;;;;;;7.43;5.55;;;;;;;;;;4448957;32;20629;-49
2021/10/04 10:53:29;;;;;;;9.27;5.47;;;;;;;;;;4448062;32;20243;-49
2021/10/04 10:55:57;;;;;;;6.53;4.32;;;;;;;;;;4448338;32;20232;-49
2021/10/04 10:58:24;;;;;;;12.23;5.53;;;;;;;;;;4448777;32;20229;-49
2021/10/04 11:00:50;;;;;;;6.47;4.53;;;;;;;;;;4447534;32;20530;-49
2021/10/04 11:03:23;;;;;;;7.40;5.37;;;;;;;;;;4448409;32;20321;-50
2021/10/04 11:05:54;;;;;;;9.77;5.87;;;;;;;;;;4449051;32;20251;-50
2021/10/04 11:08:29;;;;;;;8.05;5.05;;;;;;;;;;4448791;32;20217;-51
2021/10/04 11:10:57;;;;;;;10.40;5.05;;;;;;;;;;4448985;32;20324;-50
2021/10/04 11:14:02;;;;;;;21.23;5.55;;;;;;;;;;4448703;32;20228;-51
2021/10/04 11:16:28;;;;;;;6.72;5.03;;;;;;;;;;4430624;32;20333;-51
2021/10/04 11:18:55;;;;;;;5.80;4.87;;;;;;;;;;4449095;32;20340;-52
2021/10/04 11:21:23;;;;;;;8.27;4.40;;;;;;;;;;4448805;32;20212;-50
2021/10/04 11:23:56;;;;;;;11.77;5.03;;;;;;;;;;4448680;32;20303;-50
2021/10/04 11:26:23;;;;;;;5.55;4.60;;;;;;;;;;4448790;32;20306;-50
2021/10/04 11:28:57;;;;;;;11.77;4.37;;;;;;;;;;4448918;32;20235;-50
2021/10/04 11:31:32;;;;;;;11.70;4.82;;;;;;;;;;4448505;32;20221;-50
2021/10/04 11:34:01;;;;;;;8.95;5.20;;;;;;;;;;4437724;32;20224;-51
2021/10/04 11:36:33;;;;;;;8.68;5.25;;;;;;;;;;4442111;32;20758;-50
2021/10/04 11:39:03;;;;;;;6.95;4.55;;;;;;;;;;4448179;32;20193;-50
2021/10/04 11:41:41;;;;;;;5.22;4.65;;;;;;;;;;4446957;32;20810;-50
2021/10/04 11:44:09;;;;;;;12.13;4.43;;;;;;;;;;4448038;32;20193;-50
2021/10/04 11:46:39;;;;;;;7.18;3.92;;;;;;;;;;4447718;32;20246;-49
2021/10/04 11:49:05;;;;;;;7.78;4.32;;;;;;;;;;4446013;32;20329;-49
2021/10/04 11:51:33;;;;;;;4.95;4.00;;;;;;;;;;4446569;32;20395;-50
2021/10/04 11:53:59;;;;;;;8.82;5.00;;;;;;;;;;4446305;32;20539;-50
2021/10/04 11:56:24;;;;;;;5.72;4.20;;;;;;;;;;4446598;32;20282;-50
2021/10/04 11:58:56;;;;;;;9.75;5.25;;;;;;;;;;4447794;32;20628;-51
2021/10/04 12:01:27;;;;;;;9.40;4.68;;;;;;;;;;4443450;32;20607;-51
2021/10/04 12:04:05;;;;;;;6.85;3.72;;;;;;;;;;4432689;32;20857;-51
2021/10/04 12:06:31;;;;;;;7.15;4.62;;;;;;;;;;4432578;32;20272;-50
2021/10/04 12:08:58;;;;;;;6.37;4.15;;;;;;;;;;4447482;32;20620;-50
2021/10/04 12:11:24;;;;;;;5.43;3.42;;;;;;;;;;4447243;32;20615;-50
2021/10/04 12:13:51;;;;;;;6.90;3.05;;;;;;;;;;4443651;32;20197;-51
2021/10/04 12:16:18;;;;;;;4.82;3.67;;;;;;;;;;4431821;32;20371;-51
2021/10/04 12:18:53;;;;;;;4.93;3.87;;;;;;;;;;4432010;32;20231;-51
2021/10/04 12:21:23;;;;;;;5.68;3.50;;;;;;;;;;4430820;32;20258;-50
2021/10/04 12:24:07;;;;;;;11.05;4.43;;;;;;;;;;4431353;32;20615;-51
2021/10/04 12:26:44;;;;;;;4.60;3.28;;;;;;;;;;4431685;32;20196;-50
2021/10/04 12:29:09;;;;;;;4.15;3.12;;;;;;;;;;4441025;32;20283;-50
2021/10/04 12:31:39;;;;;;;4.93;2.78;;;;;;;;;;4446189;32;20337;-50
2021/10/04 12:34:24;;;;;;;4.85;3.50;;;;;;;;;;4442160;32;20257;-50
2021/10/04 12:36:50;;;;;;;8.05;4.47;;;;;;;;;;4447392;32;20335;-51
2021/10/04 12:39:17;;;;;;;7.97;3.62;;;;;;;;;;4447334;32;20236;-51
2021/10/04 12:41:46;;;;;;;3.80;2.45;;;;;;;;;;4447406;32;20585;-50
2021/10/04 12:44:16;;;;;;;7.37;2.97;;;;;;;;;;4447421;32;20232;-51
2021/10/04 12:47:11;;;;;;;4.43;2.90;;;;;;;;;;4447334;32;20184;-51
2021/10/04 12:49:38;;;;;;;5.37;2.90;;;;;;;;;;4447816;32;20225;-51
2021/10/04 12:52:06;;;;;;;3.83;3.10;;;;;;;;;;4447374;32;20587;-51
2021/10/04 12:54:36;;;;;;;4.80;3.60;;;;;;;;;;4446486;32;20208;-51
2021/10/04 12:57:02;;;;;;;3.90;2.87;;;;;;;;;;4446232;32;20239;-51
2021/10/04 12:59:31;;;;;;;2.53;2.20;;;;;;;;;;4447167;32;20232;-51
2021/10/04 13:02:06;;;;;;;7.53;3.10;;;;;;;;;;4446979;32;20208;-51
2021/10/04 13:04:34;;;;;;;2.80;2.22;;;;;;;;;;4447486;32;20304;-50
2021/10/04 13:07:01;;;;;;;4.12;3.20;;;;;;;;;;4447227;32;20287;-51
2021/10/04 13:09:26;;;;;;;2.90;2.37;;;;;;;;;;4447200;32;20284;-50
2021/10/04 13:11:53;;;;;;;4.07;2.70;;;;;;;;;;4447134;32;20209;-50
2021/10/04 13:14:21;;;;;;;3.75;2.37;;;;;;;;;;4446034;32;20228;-51
2021/10/04 13:16:48;;;;;;;3.35;2.30;;;;;;;;;;4447465;32;20313;-51
2021/10/04 13:19:13;;;;;;;3.90;2.55;;;;;;;;;;4447122;32;20235;-50
2021/10/04 13:21:39;;;;;;;4.57;2.62;;;;;;;;;;4447427;32;20291;-50
2021/10/04 13:24:05;;;;;;;4.75;3.22;;;;;;;;;;4449406;32;20284;-51
2021/10/04 13:26:31;;;;;;;16.10;2.55;;;;;;;;;;4450551;32;20243;-52
2021/10/04 13:28:57;;;;;;;3.53;2.30;;;;;;;;;;4441887;32;20264;-51
2021/10/04 13:31:23;;;;;;;5.22;2.10;;;;;;;;;;4447475;32;20270;-50
2021/10/04 13:33:50;;;;;;;7.05;2.65;;;;;;;;;;4448449;32;20276;-50
2021/10/04 13:36:17;;;;;;;3.62;2.40;;;;;;;;;;4449929;32;20260;-50
2021/10/04 13:38:44;;;;;;;2.95;1.98;;;;;;;;;;4437916;32;20260;-50
2021/10/04 13:41:10;;;;;;;8.43;2.87;;;;;;;;;;4449359;32;20303;-51
2021/10/04 13:43:37;;;;;;;3.55;2.45;;;;;;;;;;4450129;32;20209;-51
2021/10/04 13:46:03;;;;;;;3.17;2.47;;;;;;;;;;4450186;32;20244;-50
2021/10/04 13:48:29;;;;;;;3.58;2.05;;;;;;;;;;4450462;32;20209;-52
2021/10/04 13:50:56;;;;;;;3.83;2.42;;;;;;;;;;4450069;32;20661;-51
2021/10/04 13:53:23;;;;;;;3.60;2.83;;;;;;;;;;4450166;32;20303;-50
2021/10/04 13:55:49;;;;;;;4.75;3.40;;;;;;;;;;4450154;32;20318;-51
2021/10/04 13:58:15;;;;;;;4.95;2.87;;;;;;;;;;4450521;32;20496;-51
2021/10/04 14:00:41;;;;;;;4.12;3.00;;;;;;;;;;4450065;32;20274;-51
2021/10/04 14:03:06;;;;;;;4.18;2.65;;;;;;;;;;4449378;32;20292;-53
2021/10/04 14:05:32;;;;;;;3.80;2.42;;;;;;;;;;4449905;32;20220;-50
2021/10/04 14:07:58;;;;;;;3.67;2.40;;;;;;;;;;4435710;32;20844;-51
2021/10/04 14:10:25;;;;;;;3.10;2.35;;;;;;;;;;4450040;32;20665;-50
2021/10/04 14:12:50;;;;;;;3.97;2.92;;;;;;;;;;4450226;32;20258;-51
2021/10/04 14:15:16;;;;;;;4.25;3.25;;;;;;;;;;4449855;32;20648;-51
2021/10/04 14:17:41;;;;;;;4.55;2.70;;;;;;;;;;4450000;32;20192;-51
2021/10/04 14:20:12;;;;;;;5.37;3.47;;;;;;;;;;4449910;32;20560;-51
2021/10/04 14:22:38;;;;;;;7.15;3.10;;;;;;;;;;4450011;32;20212;-51
2021/10/04 14:25:06;;;;;;;3.62;2.40;;;;;;;;;;4449360;32;20750;-51
2021/10/04 14:27:32;;;;;;;6.53;2.70;;;;;;;;;;4449671;32;20205;-51
2021/10/04 14:29:58;;;;;;;4.15;2.72;;;;;;;;;;4449759;32;20336;-51
2021/10/04 14:32:23;;;;;;;6.32;2.58;;;;;;;;;;4448386;32;20337;-51